createdAt,value
2023-02-09T00:02:55.864Z,2.50
2023-02-09T00:07:58.059Z,2.40
2023-02-09T00:13:18.665Z,2.40
2023-02-09T00:18:21.423Z,2.30
2023-02-09T00:23:24.284Z,2.20
2023-02-09T00:28:26.828Z,2.40
2023-02-09T00:33:29.024Z,2.50
2023-02-09T00:38:31.238Z,2.60
2023-02-09T00:43:34.227Z,2.70
2023-02-09T00:48:36.568Z,2.60
2023-02-09T00:53:38.759Z,2.60
2023-02-09T00:58:41.445Z,2.60
2023-02-09T01:03:43.818Z,2.70
2023-02-09T01:08:45.961Z,2.80
2023-02-09T01:13:48.130Z,2.90
2023-02-09T01:18:50.331Z,3.00
2023-02-09T01:23:52.571Z,3.00
2023-02-09T01:28:54.869Z,3.10
2023-02-09T01:33:59.165Z,3.00
2023-02-09T01:39:03.970Z,3.00
2023-02-09T01:44:16.898Z,3.00
2023-02-09T01:49:26.365Z,3.10
2023-02-09T01:54:43.166Z,3.20
2023-02-09T01:59:51.135Z,3.20
2023-02-09T02:04:53.737Z,3.20
2023-02-09T02:09:56.248Z,3.20
2023-02-09T02:14:59.125Z,3.30
2023-02-09T02:20:10.210Z,3.30
2023-02-09T02:25:33.886Z,3.20
2023-02-09T02:30:48.039Z,3.20
2023-02-09T02:36:34.768Z,3.30
2023-02-09T02:42:11.292Z,3.30
2023-02-09T02:47:18.433Z,3.30
2023-02-09T02:52:20.471Z,3.40
2023-02-09T02:57:26.906Z,3.40
2023-02-09T03:02:35.156Z,3.50
2023-02-09T03:07:38.631Z,3.40
2023-02-09T03:13:11.120Z,3.40
2023-02-09T03:18:29.938Z,3.40
2023-02-09T03:23:56.017Z,3.40
2023-02-09T03:29:00.140Z,3.50
2023-02-09T03:34:02.605Z,3.60
2023-02-09T03:39:05.409Z,3.60
2023-02-09T03:44:26.539Z,3.60
2023-02-09T03:49:34.820Z,3.70
2023-02-09T03:54:37.219Z,3.80
2023-02-09T03:59:39.771Z,3.90
2023-02-09T04:04:41.972Z,3.90
2023-02-09T04:09:44.369Z,3.80
2023-02-09T04:14:46.390Z,3.90
2023-02-09T04:19:48.421Z,4.00
2023-02-09T04:24:50.472Z,4.00
2023-02-09T04:29:52.484Z,4.10
2023-02-09T04:34:54.558Z,4.10
2023-02-09T04:39:56.578Z,4.20
2023-02-09T04:44:58.722Z,4.20
2023-02-09T04:50:00.806Z,4.20
2023-02-09T04:55:02.971Z,4.20
2023-02-09T05:00:05.650Z,4.30
2023-02-09T05:05:07.989Z,4.30
2023-02-09T05:10:10.506Z,4.30
2023-02-09T05:15:12.688Z,4.40
2023-02-09T05:20:14.866Z,4.40
2023-02-09T05:25:17.409Z,4.50
2023-02-09T05:30:19.536Z,4.50
2023-02-09T05:35:21.910Z,4.60
2023-02-09T05:40:24.388Z,4.70
2023-02-09T05:45:26.517Z,4.70
2023-02-09T05:50:28.754Z,4.70
2023-02-09T05:55:31.102Z,4.80
2023-02-09T06:00:33.229Z,4.80
2023-02-09T06:05:35.576Z,4.80
2023-02-09T06:10:37.740Z,4.80
2023-02-09T06:15:39.894Z,4.80
2023-02-09T06:20:42.114Z,4.80
2023-02-09T06:25:44.293Z,4.80
2023-02-09T06:30:52.032Z,4.80
2023-02-09T06:35:54.682Z,4.90
2023-02-09T06:40:56.844Z,4.90
2023-02-09T06:45:59.222Z,4.90
2023-02-09T06:51:01.423Z,4.90
2023-02-09T06:56:04.215Z,5.00
2023-02-09T07:01:15.905Z,5.00
2023-02-09T07:06:19.779Z,4.90
2023-02-09T07:11:21.979Z,4.90
2023-02-09T07:16:24.115Z,5.00
2023-02-09T07:21:26.204Z,5.10
2023-02-09T07:26:28.269Z,5.20
2023-02-09T07:31:30.603Z,5.20
2023-02-09T07:36:32.695Z,5.20
2023-02-09T07:41:34.912Z,5.30
2023-02-09T07:46:37.156Z,5.40
2023-02-09T07:51:39.647Z,5.40
2023-02-09T07:56:42.082Z,5.40
2023-02-09T08:01:44.313Z,5.40
2023-02-09T08:06:46.828Z,5.40
2023-02-09T08:11:55.969Z,5.40
2023-02-09T08:17:23.218Z,5.40
2023-02-09T08:22:29.876Z,5.40
2023-02-09T08:27:32.458Z,5.40
2023-02-09T08:32:34.558Z,5.30
2023-02-09T08:37:36.599Z,5.30
2023-02-09T08:42:38.627Z,5.20
2023-02-09T08:47:40.786Z,5.20
2023-02-09T08:52:42.918Z,5.10
2023-02-09T08:57:44.935Z,5.00
2023-02-09T09:02:47.073Z,5.00
2023-02-09T09:07:49.361Z,5.00
2023-02-09T09:12:52.518Z,5.00
2023-02-09T09:17:55.883Z,5.20
2023-02-09T09:22:59.620Z,5.30
2023-02-09T09:28:01.999Z,5.50
2023-02-09T09:33:04.455Z,5.70
2023-02-09T09:38:06.761Z,5.80
2023-02-09T09:43:21.182Z,5.90
2023-02-09T09:48:26.622Z,6.00
2023-02-09T09:53:37.144Z,6.00
2023-02-09T09:58:45.542Z,6.10
2023-02-09T10:03:48.392Z,6.40
2023-02-09T10:09:23.891Z,6.80
2023-02-09T10:14:26.641Z,7.00
2023-02-09T10:19:32.951Z,7.20
2023-02-09T10:24:37.237Z,7.30
2023-02-09T10:29:40.090Z,7.40
2023-02-09T10:34:54.660Z,7.40
2023-02-09T10:40:22.760Z,7.60
2023-02-09T10:45:47.619Z,7.70
2023-02-09T10:50:50.492Z,7.90
2023-02-09T10:56:02.779Z,8.20
2023-02-09T11:01:12.743Z,8.40
2023-02-09T11:06:19.985Z,8.80
2023-02-09T11:11:25.746Z,9.20
2023-02-09T11:16:47.181Z,9.60
2023-02-09T11:22:17.309Z,9.70
2023-02-09T11:27:53.979Z,9.90
2023-02-09T11:33:16.763Z,9.80
2023-02-09T11:38:29.310Z,9.90
2023-02-09T11:43:39.232Z,10.30
2023-02-09T11:48:54.990Z,10.60
2023-02-09T11:54:12.170Z,10.90
2023-02-09T11:59:45.615Z,10.90
2023-02-09T12:04:59.420Z,10.90
2023-02-09T12:10:27.282Z,11.10
2023-02-09T12:15:32.857Z,11.20
2023-02-09T12:20:38.406Z,11.10
2023-02-09T12:25:51.889Z,11.00
2023-02-09T12:30:54.491Z,11.30
2023-02-09T12:36:18.177Z,11.50
2023-02-09T12:41:35.613Z,11.60
2023-02-09T12:46:44.556Z,11.60
2023-02-09T12:51:47.328Z,11.40
2023-02-09T12:56:50.121Z,11.20
2023-02-09T13:02:08.214Z,11.10
2023-02-09T13:07:40.109Z,11.20
2023-02-09T13:12:47.375Z,11.20
2023-02-09T13:18:06.545Z,11.30
2023-02-09T13:23:27.892Z,11.40
2023-02-09T13:28:30.474Z,11.50
2023-02-09T13:33:45.451Z,11.80
2023-02-09T13:38:48.507Z,12.00
2023-02-09T13:43:50.811Z,12.00
2023-02-09T13:48:53.237Z,12.10
2023-02-09T13:54:04.136Z,12.60
2023-02-09T13:59:06.377Z,13.40
2023-02-09T14:04:15.378Z,13.60
2023-02-09T14:09:28.819Z,13.40
2023-02-09T14:14:57.503Z,12.90
2023-02-09T14:20:00.676Z,12.30
2023-02-09T14:25:14.691Z,11.90
2023-02-09T14:30:23.458Z,11.80
2023-02-09T14:35:29.106Z,11.90
2023-02-09T14:40:34.307Z,12.00
2023-02-09T14:45:40.919Z,11.90
2023-02-09T14:50:43.215Z,11.80
2023-02-09T14:55:45.656Z,11.60
2023-02-09T15:00:48.582Z,11.50
2023-02-09T15:05:54.724Z,11.40
2023-02-09T15:11:00.554Z,11.20
2023-02-09T15:16:02.590Z,11.20
2023-02-09T15:21:04.824Z,11.20
2023-02-09T15:26:11.786Z,11.20
2023-02-09T15:31:16.175Z,11.30
2023-02-09T15:36:20.595Z,11.30
2023-02-09T15:41:41.390Z,11.20
2023-02-09T15:47:04.497Z,11.20
2023-02-09T15:52:08.019Z,11.30
2023-02-09T15:57:12.755Z,11.30
2023-02-09T16:02:16.745Z,11.30
2023-02-09T16:07:24.787Z,11.40
2023-02-09T16:12:26.883Z,11.60
2023-02-09T16:17:28.982Z,12.00
2023-02-09T16:22:31.124Z,12.10
2023-02-09T16:27:33.409Z,12.00
2023-02-09T16:32:35.633Z,11.80
2023-02-09T16:37:37.890Z,11.70
2023-02-09T16:42:39.931Z,11.50
2023-02-09T16:47:45.606Z,11.20
2023-02-09T16:52:47.791Z,10.90
2023-02-09T16:57:54.706Z,10.70
2023-02-09T17:02:58.314Z,10.50
2023-02-09T17:08:20.942Z,10.40
2023-02-09T17:13:23.195Z,10.30
2023-02-09T17:18:28.824Z,10.30
2023-02-09T17:23:31.446Z,10.20
2023-02-09T17:28:34.051Z,10.10
2023-02-09T17:33:37.672Z,9.90
2023-02-09T17:38:44.206Z,9.80
2023-02-09T17:43:47.108Z,9.70
2023-02-09T17:48:49.256Z,9.80
2023-02-09T17:53:51.537Z,9.80
2023-02-09T17:58:53.618Z,9.80
2023-02-09T18:03:57.345Z,9.90
2023-02-09T18:09:00.879Z,9.80
2023-02-09T18:14:02.877Z,9.80
2023-02-09T18:19:04.967Z,9.70
2023-02-09T18:24:07.705Z,9.70
2023-02-09T18:29:09.919Z,9.70
2023-02-09T18:34:13.144Z,9.70
2023-02-09T18:39:16.404Z,9.70
2023-02-09T18:44:18.428Z,9.70
2023-02-09T18:49:20.529Z,9.70
2023-02-09T18:54:22.622Z,9.70
2023-02-09T18:59:31.661Z,9.70
2023-02-09T19:04:33.713Z,9.70
2023-02-09T19:09:36.251Z,9.70
2023-02-09T19:14:41.804Z,9.70
2023-02-09T19:19:44.676Z,9.60
2023-02-09T19:24:47.613Z,9.60
2023-02-09T19:29:54.538Z,9.60
2023-02-09T19:34:56.645Z,9.60
2023-02-09T19:40:07.113Z,9.60
2023-02-09T19:45:09.608Z,9.60
2023-02-09T19:50:12.887Z,9.60
2023-02-09T19:55:15.732Z,9.50
2023-02-09T20:00:18.440Z,9.50
2023-02-09T20:05:20.612Z,9.50
2023-02-09T20:10:24.008Z,9.50
2023-02-09T20:15:26.104Z,9.50
2023-02-09T20:20:28.569Z,9.40
2023-02-09T20:25:30.736Z,9.50
2023-02-09T20:30:33.081Z,9.40
2023-02-09T20:35:35.245Z,9.40
2023-02-09T20:40:37.846Z,9.30
2023-02-09T20:45:58.461Z,9.20
2023-02-09T20:51:00.568Z,9.20
2023-02-09T20:56:02.636Z,9.10
2023-02-09T21:01:07.879Z,9.10
2023-02-09T21:06:12.260Z,8.90
2023-02-09T21:11:16.240Z,8.80
2023-02-09T21:16:20.317Z,8.70
2023-02-09T21:21:22.860Z,8.60
2023-02-09T21:26:25.059Z,8.50
2023-02-09T21:31:28.186Z,8.50
2023-02-09T21:36:30.278Z,8.40
2023-02-09T21:41:51.082Z,8.40
2023-02-09T21:46:54.078Z,8.40
2023-02-09T21:51:56.123Z,8.40
2023-02-09T21:56:58.144Z,8.50
2023-02-09T22:02:00.362Z,8.60
2023-02-09T22:07:02.712Z,8.70
2023-02-09T22:12:05.579Z,8.80
2023-02-09T22:17:07.631Z,8.80
2023-02-09T22:22:10.609Z,8.80
2023-02-09T22:27:12.678Z,8.80
2023-02-09T22:32:14.820Z,8.80
2023-02-09T22:37:16.956Z,8.90
2023-02-09T22:42:18.941Z,8.80
2023-02-09T22:47:20.952Z,8.80
2023-02-09T22:52:23.086Z,8.80
2023-02-09T22:57:25.699Z,8.70
2023-02-09T23:02:27.732Z,8.70
2023-02-09T23:07:29.812Z,8.70
2023-02-09T23:12:31.859Z,8.80
2023-02-09T23:17:34.035Z,8.80
2023-02-09T23:22:36.106Z,8.80
2023-02-09T23:27:38.113Z,8.80
2023-02-09T23:32:40.491Z,8.80
2023-02-09T23:37:42.540Z,8.90
2023-02-09T23:42:44.622Z,8.90
2023-02-09T23:47:46.718Z,8.80
2023-02-09T23:52:48.894Z,8.70
2023-02-09T23:57:50.915Z,8.70
